Time;durP1;ratioP1;P1;durP2;ratioP2;P2;SDS_P1;SDS_P2;PMS_P1;PMS_P2;Temp;Humidity;BMP_temperature;BMP_pressure;BME280_temperature;BME280_humidity;BME280_pressure;Samples;Min_cycle;Max_cycle;Signal;HPM_P1;HPM_P2
2022/07/26 00:01:16;;;;;;;6.13;2.28;;;;;;;;;;5278374;28;20481;-83
2022/07/26 00:03:48;;;;;;;8.75;2.15;;;;;;;;;;5278930;28;20078;-83
2022/07/26 00:06:20;;;;;;;6.63;1.88;;;;;;;;;;5280127;28;20025;-82
2022/07/26 00:08:51;;;;;;;7.45;2.30;;;;;;;;;;5278591;28;20052;-82
2022/07/26 00:11:23;;;;;;;7.07;2.15;;;;;;;;;;5280801;28;20079;-83
2022/07/26 00:13:54;;;;;;;6.78;2.40;;;;;;;;;;5277109;28;20112;-83
2022/07/26 00:16:26;;;;;;;10.63;2.20;;;;;;;;;;5277587;28;20060;-82
2022/07/26 00:18:57;;;;;;;7.55;2.15;;;;;;;;;;5278099;28;20052;-83
2022/07/26 00:21:29;;;;;;;6.50;2.07;;;;;;;;;;5255994;28;20045;-82
2022/07/26 00:24:00;;;;;;;10.43;2.20;;;;;;;;;;5265526;28;20028;-83
2022/07/26 00:26:32;;;;;;;6.67;2.37;;;;;;;;;;5275926;28;20060;-83
2022/07/26 00:29:04;;;;;;;8.05;2.28;;;;;;;;;;5259166;28;20248;-83
2022/07/26 00:31:36;;;;;;;9.82;2.50;;;;;;;;;;5281538;28;20035;-83
2022/07/26 00:34:07;;;;;;;8.43;2.33;;;;;;;;;;5277226;28;20029;-82
2022/07/26 00:36:38;;;;;;;8.23;2.43;;;;;;;;;;5280016;28;20461;-83
2022/07/26 00:39:09;;;;;;;5.53;2.27;;;;;;;;;;5279609;28;20068;-83
2022/07/26 00:41:40;;;;;;;7.33;2.00;;;;;;;;;;5279530;28;20028;-82
2022/07/26 00:44:11;;;;;;;9.30;2.63;;;;;;;;;;5281532;28;20040;-83
2022/07/26 00:46:43;;;;;;;10.57;2.57;;;;;;;;;;5278292;28;20064;-83
2022/07/26 00:49:14;;;;;;;5.90;1.90;;;;;;;;;;5280906;28;20037;-83
2022/07/26 00:51:45;;;;;;;8.55;2.17;;;;;;;;;;5277103;28;20040;-82
2022/07/26 00:54:17;;;;;;;8.57;2.20;;;;;;;;;;5279088;28;20032;-83
2022/07/26 00:56:48;;;;;;;5.75;1.95;;;;;;;;;;5267570;28;20270;-82
2022/07/26 00:59:19;;;;;;;8.00;2.15;;;;;;;;;;5278997;28;20455;-82
2022/07/26 01:01:51;;;;;;;9.15;2.22;;;;;;;;;;5277529;28;20029;-82
2022/07/26 01:04:22;;;;;;;9.80;2.47;;;;;;;;;;5277131;28;20037;-81
2022/07/26 01:06:53;;;;;;;8.18;2.00;;;;;;;;;;5277572;28;20247;-80
2022/07/26 01:09:25;;;;;;;6.57;2.63;;;;;;;;;;5276048;28;20635;-80
2022/07/26 01:11:58;;;;;;;6.83;2.27;;;;;;;;;;5278800;28;20030;-80
2022/07/26 01:14:29;;;;;;;7.65;2.45;;;;;;;;;;5265767;28;20334;-80
2022/07/26 01:17:00;;;;;;;9.33;2.87;;;;;;;;;;5278140;28;20468;-80
2022/07/26 01:19:31;;;;;;;8.35;2.60;;;;;;;;;;5287103;28;20287;-80
2022/07/26 01:22:03;;;;;;;7.88;2.10;;;;;;;;;;5282893;28;20460;-80
2022/07/26 01:24:34;;;;;;;10.55;2.28;;;;;;;;;;5269998;28;20036;-80
2022/07/26 01:27:05;;;;;;;7.38;2.33;;;;;;;;;;5283606;28;20522;-81
2022/07/26 01:29:36;;;;;;;9.68;2.33;;;;;;;;;;5280776;28;20500;-80
2022/07/26 01:32:08;;;;;;;10.00;2.80;;;;;;;;;;5282608;28;20032;-80
2022/07/26 01:34:39;;;;;;;7.93;2.47;;;;;;;;;;5265315;28;20068;-80
2022/07/26 01:37:10;;;;;;;10.77;2.42;;;;;;;;;;5280499;28;20107;-80
2022/07/26 01:39:43;;;;;;;10.65;2.55;;;;;;;;;;5269779;28;20030;-80
2022/07/26 01:42:14;;;;;;;13.88;3.05;;;;;;;;;;5274260;28;20083;-80
2022/07/26 01:44:45;;;;;;;11.33;2.90;;;;;;;;;;5275336;28;20373;-80
2022/07/26 01:47:16;;;;;;;10.93;2.80;;;;;;;;;;5287698;28;20283;-80
2022/07/26 01:49:47;;;;;;;11.30;3.17;;;;;;;;;;5278933;28;20036;-80
2022/07/26 01:52:18;;;;;;;10.23;2.93;;;;;;;;;;5281010;28;20634;-80
2022/07/26 01:54:50;;;;;;;11.63;3.00;;;;;;;;;;5279558;28;20287;-80
2022/07/26 01:57:21;;;;;;;9.53;3.17;;;;;;;;;;5278125;28;20029;-80
2022/07/26 01:59:54;;;;;;;10.77;2.93;;;;;;;;;;5277545;28;20044;-80
2022/07/26 02:02:25;;;;;;;9.48;3.78;;;;;;;;;;5277707;28;20283;-80
2022/07/26 02:05:00;;;;;;;9.80;3.37;;;;;;;;;;5282295;28;20034;-80
2022/07/26 02:07:32;;;;;;;12.98;3.15;;;;;;;;;;5281247;28;20632;-80
2022/07/26 02:10:04;;;;;;;15.27;3.78;;;;;;;;;;5280887;28;20021;-80
2022/07/26 02:12:35;;;;;;;13.55;3.47;;;;;;;;;;5284068;28;20134;-80
2022/07/26 02:15:07;;;;;;;11.77;3.33;;;;;;;;;;5265620;28;20032;-80
2022/07/26 02:17:38;;;;;;;10.88;3.13;;;;;;;;;;5283923;28;20027;-80
2022/07/26 02:20:10;;;;;;;14.07;3.65;;;;;;;;;;5282905;28;20127;-80
2022/07/26 02:22:41;;;;;;;11.50;3.58;;;;;;;;;;5277572;28;20824;-80
2022/07/26 02:25:12;;;;;;;12.87;3.83;;;;;;;;;;5283030;28;20465;-80
2022/07/26 02:27:43;;;;;;;12.57;4.27;;;;;;;;;;5286808;28;20389;-80
2022/07/26 02:30:15;;;;;;;15.13;4.27;;;;;;;;;;5279186;28;20270;-80
2022/07/26 02:32:46;;;;;;;13.00;3.93;;;;;;;;;;5264784;28;20645;-80
2022/07/26 02:35:17;;;;;;;13.55;3.72;;;;;;;;;;5280846;28;20091;-80
2022/07/26 02:37:48;;;;;;;16.42;3.70;;;;;;;;;;5270575;28;20480;-79
2022/07/26 02:40:20;;;;;;;17.50;3.95;;;;;;;;;;5281790;28;20033;-80
2022/07/26 02:42:51;;;;;;;14.43;4.50;;;;;;;;;;5282260;28;20112;-81
2022/07/26 02:45:22;;;;;;;12.57;4.23;;;;;;;;;;5267775;28;20025;-80
2022/07/26 02:47:54;;;;;;;12.65;4.45;;;;;;;;;;5284262;28;20086;-80
2022/07/26 02:50:26;;;;;;;14.90;4.35;;;;;;;;;;5278248;28;20073;-80
2022/07/26 02:52:57;;;;;;;12.15;4.15;;;;;;;;;;5282268;28;20028;-80
2022/07/26 02:55:28;;;;;;;16.98;4.82;;;;;;;;;;5280704;28;20033;-80
2022/07/26 02:57:59;;;;;;;14.52;5.40;;;;;;;;;;5265923;28;20033;-80
2022/07/26 03:00:31;;;;;;;12.93;4.63;;;;;;;;;;5286163;28;20536;-80
2022/07/26 03:03:02;;;;;;;18.70;4.83;;;;;;;;;;5263300;28;20318;-80
2022/07/26 03:05:33;;;;;;;14.80;5.13;;;;;;;;;;5281118;28;20575;-80
2022/07/26 03:08:05;;;;;;;21.03;4.87;;;;;;;;;;5275170;28;20036;-81
2022/07/26 03:10:36;;;;;;;20.92;5.07;;;;;;;;;;5282156;28;20031;-81
2022/07/26 03:13:07;;;;;;;10.73;4.53;;;;;;;;;;5277534;28;20025;-81
2022/07/26 03:15:38;;;;;;;14.27;4.13;;;;;;;;;;5261884;28;20036;-81
2022/07/26 03:18:09;;;;;;;16.10;4.87;;;;;;;;;;5287017;28;20295;-81
2022/07/26 03:20:41;;;;;;;14.63;4.60;;;;;;;;;;5281976;28;20410;-81
2022/07/26 03:23:12;;;;;;;17.23;4.80;;;;;;;;;;5263865;28;20391;-81
2022/07/26 03:25:43;;;;;;;11.75;4.32;;;;;;;;;;5266893;28;20291;-81
2022/07/26 03:28:15;;;;;;;15.35;4.45;;;;;;;;;;5283775;28;20041;-81
2022/07/26 03:30:46;;;;;;;17.58;4.97;;;;;;;;;;5277797;28;20060;-81
2022/07/26 03:33:17;;;;;;;13.53;4.67;;;;;;;;;;5281907;28;20036;-81
2022/07/26 03:35:48;;;;;;;10.77;4.43;;;;;;;;;;5269067;28;20842;-81
2022/07/26 03:38:19;;;;;;;15.98;4.95;;;;;;;;;;5277271;28;20087;-80
2022/07/26 03:40:51;;;;;;;17.85;5.13;;;;;;;;;;5284474;28;20021;-80
2022/07/26 03:43:22;;;;;;;13.57;5.57;;;;;;;;;;5277711;28;20354;-80
2022/07/26 03:45:53;;;;;;;16.15;5.22;;;;;;;;;;5288566;28;20031;-80
2022/07/26 03:48:24;;;;;;;16.67;5.07;;;;;;;;;;5281646;28;20030;-80
2022/07/26 03:50:56;;;;;;;19.03;6.13;;;;;;;;;;5270175;28;20453;-80
2022/07/26 03:53:27;;;;;;;18.03;5.83;;;;;;;;;;5281247;28;20028;-80
2022/07/26 03:58:48;;;;;;;17.95;5.57;;;;;;;;;;5287458;28;20057;-80
2022/07/26 04:01:20;;;;;;;16.93;5.20;;;;;;;;;;5286623;28;20396;-80
2022/07/26 04:03:51;;;;;;;14.13;4.90;;;;;;;;;;5283791;28;20330;-80
2022/07/26 04:06:22;;;;;;;16.70;4.90;;;;;;;;;;5278704;28;20055;-80
2022/07/26 04:08:53;;;;;;;17.30;6.03;;;;;;;;;;5283591;28;20041;-80
2022/07/26 04:11:24;;;;;;;23.53;6.23;;;;;;;;;;5287323;28;20382;-80
2022/07/26 04:13:56;;;;;;;19.20;6.13;;;;;;;;;;5267345;28;20033;-80
2022/07/26 04:16:27;;;;;;;22.52;5.50;;;;;;;;;;5288246;28;20025;-80
2022/07/26 04:18:58;;;;;;;18.23;6.07;;;;;;;;;;5284884;28;20056;-81
2022/07/26 04:21:30;;;;;;;18.13;5.93;;;;;;;;;;5283202;28;20052;-81
2022/07/26 04:24:01;;;;;;;18.30;5.50;;;;;;;;;;5279187;28;20305;-81
2022/07/26 04:26:32;;;;;;;14.20;5.65;;;;;;;;;;5282729;28;20082;-81
2022/07/26 04:29:03;;;;;;;19.70;5.97;;;;;;;;;;5284319;28;20041;-81
2022/07/26 04:31:35;;;;;;;17.63;5.53;;;;;;;;;;5283080;28;20111;-81
2022/07/26 04:34:06;;;;;;;15.53;5.13;;;;;;;;;;5281463;28;20051;-80
2022/07/26 04:36:37;;;;;;;16.30;5.33;;;;;;;;;;5279864;28;20025;-81
2022/07/26 04:39:10;;;;;;;13.63;4.68;;;;;;;;;;5276450;28;20032;-80
2022/07/26 04:41:41;;;;;;;15.65;4.75;;;;;;;;;;5281961;28;20077;-81
2022/07/26 04:44:12;;;;;;;21.77;5.50;;;;;;;;;;5278667;28;20037;-81
2022/07/26 04:46:43;;;;;;;16.80;5.67;;;;;;;;;;5286683;28;20020;-81
2022/07/26 04:49:14;;;;;;;16.07;5.07;;;;;;;;;;5280128;28;20048;-81
2022/07/26 04:51:46;;;;;;;14.40;5.35;;;;;;;;;;5279296;28;20781;-81
2022/07/26 04:54:21;;;;;;;20.87;6.40;;;;;;;;;;5276987;28;20110;-81
2022/07/26 04:56:52;;;;;;;16.70;5.40;;;;;;;;;;5274203;28;20124;-81
2022/07/26 04:59:24;;;;;;;20.58;5.65;;;;;;;;;;5260508;28;20298;-80
2022/07/26 05:01:55;;;;;;;21.23;5.43;;;;;;;;;;5286552;28;20500;-80
2022/07/26 05:04:26;;;;;;;19.40;5.87;;;;;;;;;;5281013;28;20246;-82
2022/07/26 05:07:01;;;;;;;18.00;5.20;;;;;;;;;;5272477;28;20037;-82
2022/07/26 05:09:32;;;;;;;22.05;5.70;;;;;;;;;;5272991;28;20386;-82
2022/07/26 05:12:03;;;;;;;14.23;5.30;;;;;;;;;;5269592;28;20170;-82
2022/07/26 05:14:36;;;;;;;18.75;5.25;;;;;;;;;;5265189;28;20044;-82
2022/07/26 05:17:07;;;;;;;14.63;5.07;;;;;;;;;;5278459;28;20674;-83
2022/07/26 05:19:38;;;;;;;17.60;5.47;;;;;;;;;;5276958;28;20037;-82
2022/07/26 05:22:09;;;;;;;16.13;5.55;;;;;;;;;;5280736;28;20694;-82
2022/07/26 05:24:41;;;;;;;17.43;5.47;;;;;;;;;;5279747;28;20044;-82
2022/07/26 05:27:12;;;;;;;17.45;4.88;;;;;;;;;;5282398;28;20033;-82
2022/07/26 05:29:43;;;;;;;15.37;5.70;;;;;;;;;;5287292;28;20028;-81
2022/07/26 05:32:15;;;;;;;15.13;6.00;;;;;;;;;;5284563;28;20348;-81
2022/07/26 05:34:46;;;;;;;17.08;5.68;;;;;;;;;;5281239;28;20083;-81
2022/07/26 05:37:17;;;;;;;13.17;5.23;;;;;;;;;;5261501;28;20029;-82
2022/07/26 05:39:49;;;;;;;12.63;4.80;;;;;;;;;;5266760;28;20692;-82
2022/07/26 05:42:20;;;;;;;15.43;4.83;;;;;;;;;;5279968;28;20382;-82
2022/07/26 05:44:51;;;;;;;12.75;4.50;;;;;;;;;;5287248;28;20091;-82
2022/07/26 05:47:22;;;;;;;15.60;5.15;;;;;;;;;;5286703;28;20044;-82
2022/07/26 05:49:54;;;;;;;12.13;4.47;;;;;;;;;;5280126;28;20036;-82
2022/07/26 05:52:25;;;;;;;11.30;4.25;;;;;;;;;;5290945;28;20281;-81
2022/07/26 05:54:56;;;;;;;9.93;4.60;;;;;;;;;;5289292;28;20043;-82
2022/07/26 05:57:27;;;;;;;13.48;3.80;;;;;;;;;;5280051;28;20029;-82
2022/07/26 05:59:58;;;;;;;9.07;3.50;;;;;;;;;;5279824;28;20430;-82
2022/07/26 06:02:30;;;;;;;14.27;3.83;;;;;;;;;;5285546;28;20350;-83
2022/07/26 06:05:01;;;;;;;13.50;4.20;;;;;;;;;;5275878;28;20381;-82
2022/07/26 06:07:32;;;;;;;12.93;3.60;;;;;;;;;;5280349;28;20041;-82
2022/07/26 06:10:03;;;;;;;9.80;3.47;;;;;;;;;;5273543;28;20738;-83
2022/07/26 06:12:35;;;;;;;10.23;4.05;;;;;;;;;;5278206;28;20291;-83
2022/07/26 06:15:06;;;;;;;9.85;3.42;;;;;;;;;;5265706;28;20097;-82
2022/07/26 06:17:41;;;;;;;15.90;3.70;;;;;;;;;;5282900;28;20091;-82
2022/07/26 06:20:12;;;;;;;9.52;3.50;;;;;;;;;;5285090;28;20049;-83
2022/07/26 06:22:43;;;;;;;11.90;3.60;;;;;;;;;;5286595;28;20032;-83
2022/07/26 06:25:14;;;;;;;9.83;3.57;;;;;;;;;;5286833;28;20381;-82
2022/07/26 06:27:45;;;;;;;9.60;3.70;;;;;;;;;;5266523;28;20375;-82
2022/07/26 06:30:16;;;;;;;9.13;3.50;;;;;;;;;;5286703;28;20067;-83
2022/07/26 06:32:48;;;;;;;10.93;3.17;;;;;;;;;;5273487;28;20022;-82
2022/07/26 06:35:19;;;;;;;8.53;2.73;;;;;;;;;;5280932;28;20052;-81
2022/07/26 06:37:50;;;;;;;5.10;2.80;;;;;;;;;;5285009;28;20025;-82
2022/07/26 06:40:21;;;;;;;10.40;3.20;;;;;;;;;;5276333;28;20021;-82
2022/07/26 06:42:53;;;;;;;8.43;2.80;;;;;;;;;;5284021;28;20025;-82
2022/07/26 06:45:24;;;;;;;14.45;3.50;;;;;;;;;;5277666;28;20393;-82
2022/07/26 06:47:55;;;;;;;10.70;3.10;;;;;;;;;;5260975;28;20125;-82
2022/07/26 06:50:26;;;;;;;9.03;2.60;;;;;;;;;;5285202;28;20521;-82
2022/07/26 06:52:57;;;;;;;7.93;2.87;;;;;;;;;;5285085;28;20051;-82
2022/07/26 06:55:29;;;;;;;10.73;2.70;;;;;;;;;;5285176;28;20021;-82
2022/07/26 06:58:00;;;;;;;8.93;2.43;;;;;;;;;;5267000;28;20718;-83
2022/07/26 07:00:31;;;;;;;7.77;2.57;;;;;;;;;;5265180;28;20025;-83
2022/07/26 07:03:02;;;;;;;9.57;2.67;;;;;;;;;;5284672;28;20663;-83
2022/07/26 07:05:33;;;;;;;10.40;3.63;;;;;;;;;;5263492;28;20025;-83
2022/07/26 07:08:05;;;;;;;8.30;2.10;;;;;;;;;;5263632;28;20029;-83
2022/07/26 07:10:36;;;;;;;8.53;2.30;;;;;;;;;;5266710;28;20028;-83
2022/07/26 07:13:07;;;;;;;5.40;1.80;;;;;;;;;;5281117;28;20287;-82
2022/07/26 07:15:38;;;;;;;6.83;2.20;;;;;;;;;;5284753;28;20017;-82
2022/07/26 07:18:09;;;;;;;7.13;2.07;;;;;;;;;;5266694;28;20087;-82
2022/07/26 07:20:41;;;;;;;7.93;1.80;;;;;;;;;;5283244;28;20055;-83
2022/07/26 07:23:12;;;;;;;5.10;1.90;;;;;;;;;;5284493;28;20028;-83
2022/07/26 07:25:43;;;;;;;8.70;1.80;;;;;;;;;;5285047;28;20256;-82
2022/07/26 07:28:14;;;;;;;7.13;2.07;;;;;;;;;;5284911;28;20036;-82
2022/07/26 07:30:46;;;;;;;12.70;1.93;;;;;;;;;;5285239;28;20025;-83
2022/07/26 07:33:17;;;;;;;8.68;2.08;;;;;;;;;;5284591;28;20036;-82
2022/07/26 07:35:49;;;;;;;9.47;1.80;;;;;;;;;;5287248;28;20516;-83
2022/07/26 07:38:20;;;;;;;8.90;1.73;;;;;;;;;;5267848;28;20274;-83
2022/07/26 07:40:51;;;;;;;5.93;1.67;;;;;;;;;;5285324;28;20404;-83
2022/07/26 07:43:23;;;;;;;9.70;2.47;;;;;;;;;;5284174;28;20025;-82
2022/07/26 07:45:54;;;;;;;5.73;1.70;;;;;;;;;;5265141;28;20324;-82
2022/07/26 07:48:25;;;;;;;5.78;1.65;;;;;;;;;;5266317;28;20033;-82
2022/07/26 07:50:56;;;;;;;10.00;1.70;;;;;;;;;;5284310;28;20047;-82
2022/07/26 07:53:28;;;;;;;6.47;1.35;;;;;;;;;;5283811;28;20021;-82
2022/07/26 07:55:59;;;;;;;9.57;1.73;;;;;;;;;;5284539;28;20591;-83
2022/07/26 07:58:30;;;;;;;6.05;1.83;;;;;;;;;;5265128;28;20032;-82
2022/07/26 08:01:02;;;;;;;9.00;1.97;;;;;;;;;;5266247;28;20029;-83
2022/07/26 08:03:33;;;;;;;6.23;1.53;;;;;;;;;;5284620;28;20020;-83
2022/07/26 08:06:05;;;;;;;4.63;1.70;;;;;;;;;;5285938;28;20283;-82
2022/07/26 08:08:37;;;;;;;10.40;1.90;;;;;;;;;;5265997;28;20291;-82
2022/07/26 08:11:08;;;;;;;12.27;2.40;;;;;;;;;;5281376;28;20045;-83
2022/07/26 08:13:39;;;;;;;9.83;2.23;;;;;;;;;;5263107;28;20649;-83
2022/07/26 08:16:10;;;;;;;5.67;1.43;;;;;;;;;;5262394;28;20037;-83
2022/07/26 08:18:41;;;;;;;4.30;1.23;;;;;;;;;;5262552;28;20629;-83
2022/07/26 08:21:13;;;;;;;1.77;0.80;;;;;;;;;;5262188;28;20041;-83
2022/07/26 08:23:44;;;;;;;1.10;0.70;;;;;;;;;;5263545;28;20157;-83
2022/07/26 08:26:15;;;;;;;0.90;0.40;;;;;;;;;;5284068;28;20032;-83
2022/07/26 08:28:46;;;;;;;0.50;0.50;;;;;;;;;;5282484;28;20033;-83
2022/07/26 08:31:19;;;;;;;1.03;0.50;;;;;;;;;;5283498;28;20455;-83
2022/07/26 08:33:51;;;;;;;1.30;0.52;;;;;;;;;;5282411;28;20393;-82
2022/07/26 08:36:22;;;;;;;2.80;0.57;;;;;;;;;;5295583;28;20047;-83
2022/07/26 08:38:53;;;;;;;1.80;0.60;;;;;;;;;;5307451;28;20029;-83
2022/07/26 08:41:24;;;;;;;1.63;0.75;;;;;;;;;;5306796;28;20041;-83
2022/07/26 08:44:03;;;;;;;7.20;1.40;;;;;;;;;;5288115;28;20037;-82
2022/07/26 08:46:36;;;;;;;1.70;0.60;;;;;;;;;;5308419;28;20093;-82
2022/07/26 08:49:11;;;;;;;1.65;0.40;;;;;;;;;;5278746;28;20079;-83
2022/07/26 08:51:42;;;;;;;1.50;0.50;;;;;;;;;;5291522;28;20039;-83
2022/07/26 08:54:14;;;;;;;2.00;0.28;;;;;;;;;;5289144;28;20659;-83
2022/07/26 08:56:51;;;;;;;2.00;0.63;;;;;;;;;;5289676;28;20116;-83
2022/07/26 08:59:23;;;;;;;1.73;0.40;;;;;;;;;;5286651;28;20025;-83
2022/07/26 09:01:55;;;;;;;0.87;0.40;;;;;;;;;;5265952;28;20032;-83
2022/07/26 09:04:28;;;;;;;2.42;0.65;;;;;;;;;;5279668;28;20090;-83
2022/07/26 09:06:59;;;;;;;2.10;0.65;;;;;;;;;;5243622;28;20069;-83
2022/07/26 09:09:31;;;;;;;0.53;0.40;;;;;;;;;;5261782;28;20611;-81
2022/07/26 09:12:14;;;;;;;1.17;0.45;;;;;;;;;;5244423;28;20021;-81
2022/07/26 09:14:46;;;;;;;0.88;0.40;;;;;;;;;;5260100;28;20140;-80
2022/07/26 09:17:22;;;;;;;3.03;0.60;;;;;;;;;;5262342;28;20546;-81
2022/07/26 09:20:08;;;;;;;0.90;0.60;;;;;;;;;;5272213;28;20028;-80
2022/07/26 09:23:02;;;;;;;1.02;0.55;;;;;;;;;;5283124;28;20075;-83
2022/07/26 09:25:33;;;;;;;1.55;0.60;;;;;;;;;;5282536;28;20029;-81
2022/07/26 09:28:20;;;;;;;3.03;0.60;;;;;;;;;;5283843;28;20025;-81
2022/07/26 09:30:52;;;;;;;2.88;0.60;;;;;;;;;;5286057;28;20028;-81
2022/07/26 09:33:23;;;;;;;3.65;0.60;;;;;;;;;;5286335;28;20064;-81
2022/07/26 09:36:02;;;;;;;4.32;0.60;;;;;;;;;;5286205;28;20679;-81
2022/07/26 09:38:39;;;;;;;1.30;0.60;;;;;;;;;;5285655;28;20033;-81
2022/07/26 09:41:40;;;;;;;3.53;1.23;;;;;;;;;;5267123;28;20570;-80
2022/07/26 09:44:19;;;;;;;3.83;2.08;;;;;;;;;;5254751;28;20409;-81
2022/07/26 09:46:55;;;;;;;4.38;1.45;;;;;;;;;;5285975;28;20033;-81
2022/07/26 09:49:26;;;;;;;3.40;1.00;;;;;;;;;;5267447;28;20128;-83
2022/07/26 09:51:57;;;;;;;4.88;2.08;;;;;;;;;;5286292;28;20021;-83
2022/07/26 09:54:29;;;;;;;5.53;2.47;;;;;;;;;;5267499;28;20075;-81
2022/07/26 09:57:01;;;;;;;6.00;1.40;;;;;;;;;;5285875;28;20021;-83
2022/07/26 09:59:32;;;;;;;3.50;1.10;;;;;;;;;;5278173;28;20107;-81
2022/07/26 10:02:04;;;;;;;3.13;0.97;;;;;;;;;;5276057;28;20021;-82
2022/07/26 10:04:35;;;;;;;2.40;1.00;;;;;;;;;;5286152;28;20679;-82
2022/07/26 10:07:07;;;;;;;2.53;0.67;;;;;;;;;;5268016;28;20021;-82
2022/07/26 10:09:47;;;;;;;3.60;0.93;;;;;;;;;;5286088;28;20021;-82
2022/07/26 10:12:19;;;;;;;2.40;0.52;;;;;;;;;;5285644;28;20017;-82
2022/07/26 10:14:51;;;;;;;1.92;0.70;;;;;;;;;;5285836;28;20079;-82
2022/07/26 10:17:28;;;;;;;1.33;0.60;;;;;;;;;;5286105;28;20032;-82
2022/07/26 10:20:00;;;;;;;1.50;0.57;;;;;;;;;;5285176;28;20352;-82
2022/07/26 10:22:32;;;;;;;0.98;0.50;;;;;;;;;;5285537;28;20032;-82
2022/07/26 10:25:17;;;;;;;3.65;1.00;;;;;;;;;;5281535;28;20509;-82
2022/07/26 10:27:52;;;;;;;1.73;0.77;;;;;;;;;;5285430;28;20029;-81
2022/07/26 10:30:25;;;;;;;3.63;0.70;;;;;;;;;;5285018;28;20021;-81
2022/07/26 10:33:00;;;;;;;2.15;0.77;;;;;;;;;;5285598;28;20508;-81
2022/07/26 10:35:43;;;;;;;1.37;0.50;;;;;;;;;;5284685;28;20111;-81
2022/07/26 10:38:20;;;;;;;1.63;0.55;;;;;;;;;;5283410;28;20032;-82
2022/07/26 10:40:56;;;;;;;3.28;0.50;;;;;;;;;;5283652;28;20036;-82
2022/07/26 10:43:27;;;;;;;1.98;0.55;;;;;;;;;;5284036;28;20025;-82
2022/07/26 10:46:08;;;;;;;2.33;0.40;;;;;;;;;;5267256;28;20063;-82
2022/07/26 10:48:54;;;;;;;4.82;0.90;;;;;;;;;;5283664;28;20037;-82
2022/07/26 10:51:25;;;;;;;;;;;;;;;;;;5284017;28;20040;-82
2022/07/26 10:53:59;;;;;;;2.38;1.17;;;;;;;;;;5285217;28;20373;-82
2022/07/26 10:56:31;;;;;;;2.65;1.77;;;;;;;;;;5284412;28;20431;-82
2022/07/26 10:59:05;;;;;;;3.17;1.63;;;;;;;;;;5284948;28;20029;-82
2022/07/26 11:01:38;;;;;;;1.23;0.50;;;;;;;;;;5265007;28;20033;-82
2022/07/26 11:04:18;;;;;;;9.57;6.90;;;;;;;;;;5278783;28;20480;-82
2022/07/26 11:06:50;;;;;;;1.95;0.40;;;;;;;;;;5283480;28;20064;-82
2022/07/26 11:09:22;;;;;;;4.85;3.05;;;;;;;;;;5266386;28;20060;-82
2022/07/26 11:11:54;;;;;;;2.97;0.60;;;;;;;;;;5266489;28;20017;-82
2022/07/26 11:14:25;;;;;;;6.75;3.42;;;;;;;;;;5284035;28;20029;-82
2022/07/26 11:16:56;;;;;;;3.55;0.80;;;;;;;;;;5283166;28;20095;-82
2022/07/26 11:19:28;;;;;;;4.43;1.00;;;;;;;;;;5284518;28;20382;-83
2022/07/26 11:21:59;;;;;;;1.90;0.80;;;;;;;;;;5279548;28;20269;-83
2022/07/26 11:24:30;;;;;;;2.35;0.80;;;;;;;;;;5262409;28;20041;-83
2022/07/26 11:27:03;;;;;;;2.40;0.90;;;;;;;;;;5265864;28;20026;-83
2022/07/26 11:29:35;;;;;;;1.73;0.90;;;;;;;;;;5265297;28;20477;-83
2022/07/26 11:32:14;;;;;;;5.43;1.10;;;;;;;;;;5275656;28;20086;-82
2022/07/26 11:34:46;;;;;;;4.20;2.20;;;;;;;;;;5281322;28;20122;-83
2022/07/26 11:37:17;;;;;;;5.47;1.00;;;;;;;;;;5281098;28;20048;-83
2022/07/26 11:39:48;;;;;;;3.03;0.80;;;;;;;;;;5305406;28;20481;-83
2022/07/26 11:42:20;;;;;;;2.53;1.20;;;;;;;;;;5278627;28;20037;-83
2022/07/26 11:44:52;;;;;;;1.90;1.15;;;;;;;;;;5280376;28;20025;-82
2022/07/26 11:47:23;;;;;;;2.00;1.20;;;;;;;;;;5283353;28;20017;-82
2022/07/26 11:50:03;;;;;;;2.40;0.93;;;;;;;;;;5284174;28;20028;-82
2022/07/26 11:52:34;;;;;;;0.88;0.60;;;;;;;;;;5283867;28;20021;-83
2022/07/26 11:55:06;;;;;;;2.10;1.02;;;;;;;;;;5272050;28;20473;-82
2022/07/26 11:57:37;;;;;;;1.65;0.70;;;;;;;;;;5280778;28;20461;-82
2022/07/26 12:00:08;;;;;;;1.67;0.70;;;;;;;;;;5283818;28;20108;-82
2022/07/26 12:02:40;;;;;;;2.55;0.90;;;;;;;;;;5282939;28;20029;-82
2022/07/26 12:05:21;;;;;;;1.27;0.50;;;;;;;;;;5286728;28;20114;-82
2022/07/26 12:08:01;;;;;;;5.13;1.00;;;;;;;;;;5293236;28;20634;-82
2022/07/26 12:10:33;;;;;;;2.88;1.13;;;;;;;;;;5276421;28;20027;-82
2022/07/26 12:13:11;;;;;;;2.97;0.82;;;;;;;;;;5293408;28;20038;-82
2022/07/26 12:15:46;;;;;;;2.75;0.70;;;;;;;;;;5286030;28;20025;-82
2022/07/26 12:18:24;;;;;;;6.27;1.30;;;;;;;;;;5290518;28;20033;-82
2022/07/26 12:21:02;;;;;;;1.88;1.00;;;;;;;;;;5289093;28;20279;-82
2022/07/26 12:23:41;;;;;;;2.38;0.90;;;;;;;;;;5284595;28;20025;-82
2022/07/26 12:26:22;;;;;;;3.58;1.17;;;;;;;;;;5283530;28;20029;-82
2022/07/26 12:28:54;;;;;;;4.13;1.33;;;;;;;;;;5264744;28;20025;-82
2022/07/26 12:31:25;;;;;;;4.55;1.70;;;;;;;;;;5283550;28;20037;-82
2022/07/26 12:33:57;;;;;;;2.67;1.00;;;;;;;;;;5272263;28;20510;-81
2022/07/26 12:36:32;;;;;;;3.22;1.23;;;;;;;;;;5281948;28;20040;-81
2022/07/26 12:39:04;;;;;;;3.45;1.20;;;;;;;;;;5282954;28;20025;-82
2022/07/26 12:41:37;;;;;;;2.45;1.27;;;;;;;;;;5265603;28;20090;-82
2022/07/26 12:44:11;;;;;;;7.15;2.03;;;;;;;;;;5284549;28;20029;-82
2022/07/26 12:46:46;;;;;;;4.05;1.70;;;;;;;;;;5278928;28;20463;-82
2022/07/26 12:49:17;;;;;;;5.57;2.25;;;;;;;;;;5282058;28;20117;-81
2022/07/26 12:51:48;;;;;;;13.25;1.95;;;;;;;;;;5272169;28;20107;-82
2022/07/26 12:54:19;;;;;;;10.13;1.83;;;;;;;;;;5267430;28;20025;-82
2022/07/26 12:56:50;;;;;;;3.45;1.20;;;;;;;;;;5272249;28;20490;-82
2022/07/26 12:59:22;;;;;;;2.97;1.10;;;;;;;;;;5281065;28;20784;-82
2022/07/26 13:01:53;;;;;;;3.22;1.00;;;;;;;;;;5281543;28;20087;-82
2022/07/26 13:04:24;;;;;;;3.37;1.43;;;;;;;;;;5278421;28;20365;-83
2022/07/26 13:06:55;;;;;;;2.80;1.10;;;;;;;;;;5302060;28;20020;-83
2022/07/26 13:09:27;;;;;;;4.03;1.02;;;;;;;;;;5289113;28;20033;-82
2022/07/26 13:11:59;;;;;;;4.10;1.20;;;;;;;;;;5273792;28;20112;-83
2022/07/26 13:14:31;;;;;;;3.15;1.15;;;;;;;;;;5270482;28;20485;-83
2022/07/26 13:17:03;;;;;;;5.47;1.52;;;;;;;;;;5272164;28;20594;-83
2022/07/26 13:19:35;;;;;;;5.22;1.60;;;;;;;;;;5263870;28;20033;-82
2022/07/26 13:22:07;;;;;;;5.05;1.58;;;;;;;;;;5261442;28;20050;-84
2022/07/26 13:24:38;;;;;;;5.13;1.45;;;;;;;;;;5267772;28;20021;-83
2022/07/26 13:27:10;;;;;;;3.50;1.80;;;;;;;;;;5281706;28;20362;-83
2022/07/26 13:29:41;;;;;;;5.97;1.60;;;;;;;;;;5282416;28;20204;-83
2022/07/26 13:32:12;;;;;;;6.33;1.73;;;;;;;;;;5282548;28;20637;-83
2022/07/26 13:34:43;;;;;;;5.33;1.50;;;;;;;;;;5282652;28;20056;-83
2022/07/26 13:37:14;;;;;;;6.25;1.73;;;;;;;;;;5282454;28;20025;-83
2022/07/26 13:39:46;;;;;;;8.48;2.17;;;;;;;;;;5280025;28;20090;-83
2022/07/26 13:42:18;;;;;;;4.35;1.70;;;;;;;;;;5282079;28;20132;-83
2022/07/26 13:44:49;;;;;;;3.95;1.60;;;;;;;;;;5264479;28;20071;-83
2022/07/26 13:47:20;;;;;;;5.10;1.50;;;;;;;;;;5283136;28;20412;-83
2022/07/26 13:49:51;;;;;;;6.43;1.90;;;;;;;;;;5264555;28;20029;-83
2022/07/26 13:52:23;;;;;;;7.75;2.10;;;;;;;;;;5281041;28;20414;-83
2022/07/26 13:54:54;;;;;;;6.30;2.10;;;;;;;;;;5262018;28;20061;-83
2022/07/26 13:57:25;;;;;;;5.47;2.37;;;;;;;;;;5264890;28;20029;-82
2022/07/26 13:59:56;;;;;;;5.90;2.47;;;;;;;;;;5265361;28;20347;-82
2022/07/26 14:02:27;;;;;;;9.37;2.57;;;;;;;;;;5283046;28;20022;-82
2022/07/26 14:04:58;;;;;;;5.70;1.98;;;;;;;;;;5282841;28;20080;-82
2022/07/26 14:07:30;;;;;;;5.70;2.20;;;;;;;;;;5281643;28;20040;-82
2022/07/26 14:10:01;;;;;;;8.18;2.53;;;;;;;;;;5282410;28;20036;-83
2022/07/26 14:12:32;;;;;;;7.27;2.50;;;;;;;;;;5282278;28;20025;-82
2022/07/26 14:15:04;;;;;;;7.22;2.53;;;;;;;;;;5264986;28;20616;-82
2022/07/26 14:17:35;;;;;;;7.60;2.63;;;;;;;;;;5285968;28;20037;-82
2022/07/26 14:20:08;;;;;;;7.13;2.38;;;;;;;;;;5285753;28;20484;-82
2022/07/26 14:22:39;;;;;;;4.40;2.55;;;;;;;;;;5267119;28;20104;-82
2022/07/26 14:25:10;;;;;;;3.93;2.37;;;;;;;;;;5285759;28;20544;-82
2022/07/26 14:27:41;;;;;;;5.10;2.45;;;;;;;;;;5266363;28;20430;-82
2022/07/26 14:30:13;;;;;;;8.27;2.10;;;;;;;;;;5285744;28;20040;-82
2022/07/26 14:32:45;;;;;;;6.70;2.38;;;;;;;;;;5285204;28;20338;-82
2022/07/26 14:35:16;;;;;;;5.88;2.20;;;;;;;;;;5267260;28;20025;-82
2022/07/26 14:37:48;;;;;;;6.33;1.73;;;;;;;;;;5285637;28;20396;-82
2022/07/26 14:40:19;;;;;;;6.10;1.50;;;;;;;;;;5285086;28;20025;-82
2022/07/26 14:42:50;;;;;;;5.90;1.40;;;;;;;;;;5285561;28;20346;-82
2022/07/26 14:45:21;;;;;;;8.30;1.40;;;;;;;;;;5284729;28;20025;-82
2022/07/26 14:47:53;;;;;;;4.67;1.43;;;;;;;;;;5266996;28;20064;-82
2022/07/26 14:50:27;;;;;;;3.90;1.30;;;;;;;;;;5273600;28;20253;-82
2022/07/26 14:52:58;;;;;;;4.57;0.93;;;;;;;;;;5246392;28;20144;-82
2022/07/26 14:55:29;;;;;;;3.90;1.20;;;;;;;;;;5263599;28;20367;-82
2022/07/26 14:58:01;;;;;;;4.37;1.33;;;;;;;;;;5262687;28;20029;-82
2022/07/26 15:00:32;;;;;;;8.33;1.60;;;;;;;;;;5263838;28;20854;-82
2022/07/26 15:03:03;;;;;;;4.00;1.17;;;;;;;;;;5274800;28;20033;-82
2022/07/26 15:05:35;;;;;;;5.07;1.10;;;;;;;;;;5265369;28;20033;-82
2022/07/26 15:08:06;;;;;;;2.50;1.10;;;;;;;;;;5266349;28;20496;-82
2022/07/26 15:10:37;;;;;;;10.93;1.57;;;;;;;;;;5285062;28;20020;-82